sensor_id;sensor_type;location;lat;lon;timestamp;P1;durP1;ratioP1;P2;durP2;ratioP2
34872;SDS011;21084;51.098;14.506;2023-07-20T00:00:37;7.82;;;5.75;;
34872;SDS011;21084;51.098;14.506;2023-07-20T00:03:09;9.85;;;5.78;;
34872;SDS011;21084;51.098;14.506;2023-07-20T00:05:45;11.68;;;5.88;;
34872;SDS011;21084;51.098;14.506;2023-07-20T00:08:14;8.23;;;6.00;;
34872;SDS011;21084;51.098;14.506;2023-07-20T00:10:43;8.23;;;6.07;;
34872;SDS011;21084;51.098;14.506;2023-07-20T00:13:12;9.57;;;6.43;;
34872;SDS011;21084;51.098;14.506;2023-07-20T00:15:42;9.05;;;5.60;;
34872;SDS011;21084;51.098;14.506;2023-07-20T00:18:11;9.00;;;5.82;;
34872;SDS011;21084;51.098;14.506;2023-07-20T00:20:40;8.13;;;5.65;;
34872;SDS011;21084;51.098;14.506;2023-07-20T00:23:09;10.13;;;5.57;;
34872;SDS011;21084;51.098;14.506;2023-07-20T00:25:38;8.07;;;6.00;;
34872;SDS011;21084;51.098;14.506;2023-07-20T00:28:07;13.45;;;6.55;;
34872;SDS011;21084;51.098;14.506;2023-07-20T00:30:37;9.85;;;6.88;;
34872;SDS011;21084;51.098;14.506;2023-07-20T00:33:06;12.75;;;6.38;;
34872;SDS011;21084;51.098;14.506;2023-07-20T00:35:38;12.00;;;7.28;;
34872;SDS011;21084;51.098;14.506;2023-07-20T00:38:07;13.00;;;8.23;;
34872;SDS011;21084;51.098;14.506;2023-07-20T00:40:37;14.60;;;11.50;;
34872;SDS011;21084;51.098;14.506;2023-07-20T00:43:06;19.48;;;11.82;;
34872;SDS011;21084;51.098;14.506;2023-07-20T00:45:34;17.38;;;13.27;;
34872;SDS011;21084;51.098;14.506;2023-07-20T00:48:05;24.10;;;15.45;;
34872;SDS011;21084;51.098;14.506;2023-07-20T00:50:34;24.65;;;16.23;;
34872;SDS011;21084;51.098;14.506;2023-07-20T00:53:03;21.80;;;15.13;;
34872;SDS011;21084;51.098;14.506;2023-07-20T00:55:33;23.10;;;15.65;;
34872;SDS011;21084;51.098;14.506;2023-07-20T00:58:03;18.10;;;14.35;;
34872;SDS011;21084;51.098;14.506;2023-07-20T01:00:33;20.75;;;15.45;;
34872;SDS011;21084;51.098;14.506;2023-07-20T01:03:02;20.33;;;15.05;;
34872;SDS011;21084;51.098;14.506;2023-07-20T01:05:33;24.92;;;16.17;;
34872;SDS011;21084;51.098;14.506;2023-07-20T01:08:07;20.52;;;15.77;;
34872;SDS011;21084;51.098;14.506;2023-07-20T01:10:44;23.80;;;15.00;;
34872;SDS011;21084;51.098;14.506;2023-07-20T01:13:19;20.00;;;15.23;;
34872;SDS011;21084;51.098;14.506;2023-07-20T01:15:49;20.40;;;14.52;;
34872;SDS011;21084;51.098;14.506;2023-07-20T01:18:18;19.25;;;14.85;;
34872;SDS011;21084;51.098;14.506;2023-07-20T01:20:47;21.17;;;13.35;;
34872;SDS011;21084;51.098;14.506;2023-07-20T01:23:22;20.83;;;14.17;;
34872;SDS011;21084;51.098;14.506;2023-07-20T01:26:10;18.77;;;14.30;;
34872;SDS011;21084;51.098;14.506;2023-07-20T01:29:01;19.10;;;14.00;;
34872;SDS011;21084;51.098;14.506;2023-07-20T01:31:44;19.10;;;13.98;;
34872;SDS011;21084;51.098;14.506;2023-07-20T01:34:13;24.27;;;15.13;;
34872;SDS011;21084;51.098;14.506;2023-07-20T01:36:45;24.52;;;15.50;;
34872;SDS011;21084;51.098;14.506;2023-07-20T01:39:15;26.42;;;15.18;;
34872;SDS011;21084;51.098;14.506;2023-07-20T01:41:45;23.13;;;15.00;;
34872;SDS011;21084;51.098;14.506;2023-07-20T01:44:14;21.90;;;15.65;;
34872;SDS011;21084;51.098;14.506;2023-07-20T01:46:44;19.40;;;14.25;;
34872;SDS011;21084;51.098;14.506;2023-07-20T01:49:13;23.45;;;14.13;;
34872;SDS011;21084;51.098;14.506;2023-07-20T01:51:42;26.77;;;14.63;;
34872;SDS011;21084;51.098;14.506;2023-07-20T01:54:10;23.30;;;13.77;;
34872;SDS011;21084;51.098;14.506;2023-07-20T01:56:39;18.58;;;14.02;;
34872;SDS011;21084;51.098;14.506;2023-07-20T01:59:07;23.83;;;12.80;;
34872;SDS011;21084;51.098;14.506;2023-07-20T02:01:36;23.15;;;12.30;;
34872;SDS011;21084;51.098;14.506;2023-07-20T02:04:06;19.20;;;13.63;;
34872;SDS011;21084;51.098;14.506;2023-07-20T02:09:03;23.45;;;12.88;;
34872;SDS011;21084;51.098;14.506;2023-07-20T02:11:31;23.05;;;13.27;;
34872;SDS011;21084;51.098;14.506;2023-07-20T02:14:00;21.63;;;12.18;;
34872;SDS011;21084;51.098;14.506;2023-07-20T02:16:28;18.13;;;11.27;;
34872;SDS011;21084;51.098;14.506;2023-07-20T02:18:57;18.10;;;11.00;;
34872;SDS011;21084;51.098;14.506;2023-07-20T02:21:27;21.33;;;11.38;;
34872;SDS011;21084;51.098;14.506;2023-07-20T02:26:23;18.55;;;10.50;;
34872;SDS011;21084;51.098;14.506;2023-07-20T02:28:52;18.38;;;10.85;;
34872;SDS011;21084;51.098;14.506;2023-07-20T02:31:21;23.42;;;10.70;;
34872;SDS011;21084;51.098;14.506;2023-07-20T02:33:50;25.33;;;13.75;;
34872;SDS011;21084;51.098;14.506;2023-07-20T02:36:18;18.33;;;11.20;;
34872;SDS011;21084;51.098;14.506;2023-07-20T02:38:48;16.83;;;11.57;;
34872;SDS011;21084;51.098;14.506;2023-07-20T02:43:45;19.20;;;11.88;;
34872;SDS011;21084;51.098;14.506;2023-07-20T02:46:14;20.73;;;10.95;;
34872;SDS011;21084;51.098;14.506;2023-07-20T02:48:43;15.45;;;9.65;;
34872;SDS011;21084;51.098;14.506;2023-07-20T02:51:11;15.02;;;10.43;;
34872;SDS011;21084;51.098;14.506;2023-07-20T02:53:40;18.50;;;11.40;;
34872;SDS011;21084;51.098;14.506;2023-07-20T02:56:10;15.10;;;10.00;;
34872;SDS011;21084;51.098;14.506;2023-07-20T02:58:40;16.23;;;11.00;;
34872;SDS011;21084;51.098;14.506;2023-07-20T03:01:12;13.60;;;10.73;;
34872;SDS011;21084;51.098;14.506;2023-07-20T03:03:42;13.07;;;9.77;;
34872;SDS011;21084;51.098;14.506;2023-07-20T03:06:13;14.65;;;10.88;;
34872;SDS011;21084;51.098;14.506;2023-07-20T03:08:42;17.40;;;10.23;;
34872;SDS011;21084;51.098;14.506;2023-07-20T03:11:15;13.70;;;9.10;;
34872;SDS011;21084;51.098;14.506;2023-07-20T03:13:45;15.82;;;10.10;;
34872;SDS011;21084;51.098;14.506;2023-07-20T03:16:15;16.05;;;10.52;;
34872;SDS011;21084;51.098;14.506;2023-07-20T03:18:46;16.27;;;10.60;;
34872;SDS011;21084;51.098;14.506;2023-07-20T03:21:15;16.17;;;11.67;;
34872;SDS011;21084;51.098;14.506;2023-07-20T03:23:43;16.33;;;11.77;;
34872;SDS011;21084;51.098;14.506;2023-07-20T03:26:12;19.27;;;11.55;;
34872;SDS011;21084;51.098;14.506;2023-07-20T03:28:42;24.00;;;11.65;;
34872;SDS011;21084;51.098;14.506;2023-07-20T03:33:39;17.33;;;12.23;;
34872;SDS011;21084;51.098;14.506;2023-07-20T03:38:37;14.13;;;10.25;;
34872;SDS011;21084;51.098;14.506;2023-07-20T03:41:06;14.43;;;9.27;;
34872;SDS011;21084;51.098;14.506;2023-07-20T03:43:35;24.50;;;11.50;;
34872;SDS011;21084;51.098;14.506;2023-07-20T03:46:05;13.52;;;10.43;;
34872;SDS011;21084;51.098;14.506;2023-07-20T03:51:02;15.73;;;9.68;;
34872;SDS011;21084;51.098;14.506;2023-07-20T03:53:31;14.55;;;9.05;;
34872;SDS011;21084;51.098;14.506;2023-07-20T03:55:59;13.90;;;9.93;;
34872;SDS011;21084;51.098;14.506;2023-07-20T03:58:28;18.98;;;11.63;;
34872;SDS011;21084;51.098;14.506;2023-07-20T04:03:27;29.38;;;12.80;;
34872;SDS011;21084;51.098;14.506;2023-07-20T04:05:56;19.17;;;11.65;;
34872;SDS011;21084;51.098;14.506;2023-07-20T04:08:25;16.88;;;11.35;;
34872;SDS011;21084;51.098;14.506;2023-07-20T04:10:53;21.42;;;10.77;;
34872;SDS011;21084;51.098;14.506;2023-07-20T04:13:23;15.95;;;10.50;;
34872;SDS011;21084;51.098;14.506;2023-07-20T04:15:51;14.82;;;9.88;;
34872;SDS011;21084;51.098;14.506;2023-07-20T04:18:19;15.35;;;9.02;;
34872;SDS011;21084;51.098;14.506;2023-07-20T04:20:49;12.77;;;8.05;;
34872;SDS011;21084;51.098;14.506;2023-07-20T04:23:18;12.88;;;8.10;;
34872;SDS011;21084;51.098;14.506;2023-07-20T04:25:47;11.00;;;8.17;;
34872;SDS011;21084;51.098;14.506;2023-07-20T04:28:15;12.50;;;7.20;;
34872;SDS011;21084;51.098;14.506;2023-07-20T04:30:44;12.00;;;7.13;;
34872;SDS011;21084;51.098;14.506;2023-07-20T04:33:12;13.73;;;7.40;;
34872;SDS011;21084;51.098;14.506;2023-07-20T04:35:44;11.23;;;7.85;;
34872;SDS011;21084;51.098;14.506;2023-07-20T04:38:16;11.30;;;8.00;;
34872;SDS011;21084;51.098;14.506;2023-07-20T04:40:45;15.00;;;8.73;;
34872;SDS011;21084;51.098;14.506;2023-07-20T04:43:14;12.07;;;7.78;;
34872;SDS011;21084;51.098;14.506;2023-07-20T04:45:43;17.52;;;8.40;;
34872;SDS011;21084;51.098;14.506;2023-07-20T04:48:12;12.30;;;8.77;;
34872;SDS011;21084;51.098;14.506;2023-07-20T04:50:42;10.82;;;8.43;;
34872;SDS011;21084;51.098;14.506;2023-07-20T04:53:12;16.73;;;9.43;;
34872;SDS011;21084;51.098;14.506;2023-07-20T04:55:46;17.70;;;8.77;;
34872;SDS011;21084;51.098;14.506;2023-07-20T04:58:19;10.70;;;8.50;;
34872;SDS011;21084;51.098;14.506;2023-07-20T05:00:48;13.48;;;9.07;;
34872;SDS011;21084;51.098;14.506;2023-07-20T05:03:17;15.30;;;9.52;;
34872;SDS011;21084;51.098;14.506;2023-07-20T05:05:46;15.63;;;9.02;;
34872;SDS011;21084;51.098;14.506;2023-07-20T05:10:46;16.80;;;7.82;;
34872;SDS011;21084;51.098;14.506;2023-07-20T05:13:16;16.73;;;8.27;;
34872;SDS011;21084;51.098;14.506;2023-07-20T05:15:44;17.52;;;9.50;;
34872;SDS011;21084;51.098;14.506;2023-07-20T05:18:13;12.80;;;9.23;;
34872;SDS011;21084;51.098;14.506;2023-07-20T05:20:46;13.63;;;9.27;;
34872;SDS011;21084;51.098;14.506;2023-07-20T05:23:17;14.35;;;9.38;;
34872;SDS011;21084;51.098;14.506;2023-07-20T05:25:47;16.55;;;9.57;;
34872;SDS011;21084;51.098;14.506;2023-07-20T05:28:22;13.52;;;9.65;;
34872;SDS011;21084;51.098;14.506;2023-07-20T05:30:51;11.85;;;9.95;;
34872;SDS011;21084;51.098;14.506;2023-07-20T05:33:20;13.10;;;9.95;;
34872;SDS011;21084;51.098;14.506;2023-07-20T05:35:49;15.33;;;9.93;;
34872;SDS011;21084;51.098;14.506;2023-07-20T05:38:17;19.08;;;10.05;;
34872;SDS011;21084;51.098;14.506;2023-07-20T05:40:48;16.77;;;10.30;;
34872;SDS011;21084;51.098;14.506;2023-07-20T05:45:45;24.15;;;10.82;;
34872;SDS011;21084;51.098;14.506;2023-07-20T05:48:14;16.45;;;10.90;;
34872;SDS011;21084;51.098;14.506;2023-07-20T05:50:43;15.48;;;10.57;;
34872;SDS011;21084;51.098;14.506;2023-07-20T05:53:12;15.07;;;11.45;;
34872;SDS011;21084;51.098;14.506;2023-07-20T05:55:40;16.48;;;11.88;;
34872;SDS011;21084;51.098;14.506;2023-07-20T05:58:10;18.73;;;11.35;;
34872;SDS011;21084;51.098;14.506;2023-07-20T06:00:39;14.85;;;11.25;;
34872;SDS011;21084;51.098;14.506;2023-07-20T06:03:08;19.45;;;11.30;;
34872;SDS011;21084;51.098;14.506;2023-07-20T06:05:37;19.30;;;12.20;;
34872;SDS011;21084;51.098;14.506;2023-07-20T06:08:05;16.60;;;11.10;;
34872;SDS011;21084;51.098;14.506;2023-07-20T06:10:34;14.63;;;10.73;;
34872;SDS011;21084;51.098;14.506;2023-07-20T06:13:02;16.92;;;11.02;;
34872;SDS011;21084;51.098;14.506;2023-07-20T06:15:32;17.40;;;11.55;;
34872;SDS011;21084;51.098;14.506;2023-07-20T06:18:02;18.75;;;11.75;;
34872;SDS011;21084;51.098;14.506;2023-07-20T06:20:31;16.33;;;11.93;;
34872;SDS011;21084;51.098;14.506;2023-07-20T06:23:00;15.20;;;11.73;;
34872;SDS011;21084;51.098;14.506;2023-07-20T06:25:28;18.80;;;12.27;;
34872;SDS011;21084;51.098;14.506;2023-07-20T06:27:57;16.27;;;11.25;;
34872;SDS011;21084;51.098;14.506;2023-07-20T06:30:25;16.52;;;9.65;;
34872;SDS011;21084;51.098;14.506;2023-07-20T06:32:56;14.43;;;8.55;;
34872;SDS011;21084;51.098;14.506;2023-07-20T06:35:25;16.30;;;8.98;;
34872;SDS011;21084;51.098;14.506;2023-07-20T06:37:53;13.57;;;9.25;;
34872;SDS011;21084;51.098;14.506;2023-07-20T06:40:22;14.13;;;9.23;;
34872;SDS011;21084;51.098;14.506;2023-07-20T06:42:54;10.27;;;8.60;;
34872;SDS011;21084;51.098;14.506;2023-07-20T06:45:25;13.40;;;9.25;;
34872;SDS011;21084;51.098;14.506;2023-07-20T06:47:54;20.30;;;10.43;;
34872;SDS011;21084;51.098;14.506;2023-07-20T06:52:55;19.60;;;10.00;;
34872;SDS011;21084;51.098;14.506;2023-07-20T06:55:25;17.52;;;9.65;;
34872;SDS011;21084;51.098;14.506;2023-07-20T06:57:54;11.13;;;9.65;;
34872;SDS011;21084;51.098;14.506;2023-07-20T07:00:25;16.15;;;10.52;;
34872;SDS011;21084;51.098;14.506;2023-07-20T07:02:55;13.90;;;11.07;;
34872;SDS011;21084;51.098;14.506;2023-07-20T07:05:24;14.40;;;11.32;;
34872;SDS011;21084;51.098;14.506;2023-07-20T07:08:02;16.73;;;11.20;;
34872;SDS011;21084;51.098;14.506;2023-07-20T07:10:32;17.50;;;11.98;;
34872;SDS011;21084;51.098;14.506;2023-07-20T07:13:03;15.27;;;10.30;;
34872;SDS011;21084;51.098;14.506;2023-07-20T07:15:33;11.07;;;9.20;;
34872;SDS011;21084;51.098;14.506;2023-07-20T07:18:04;12.75;;;8.75;;
34872;SDS011;21084;51.098;14.506;2023-07-20T07:20:33;14.93;;;10.23;;
34872;SDS011;21084;51.098;14.506;2023-07-20T07:23:02;9.82;;;6.60;;
34872;SDS011;21084;51.098;14.506;2023-07-20T07:25:30;15.10;;;7.03;;
34872;SDS011;21084;51.098;14.506;2023-07-20T07:27:59;8.52;;;7.07;;
34872;SDS011;21084;51.098;14.506;2023-07-20T07:30:28;9.55;;;6.55;;
34872;SDS011;21084;51.098;14.506;2023-07-20T07:33:00;11.52;;;6.60;;
34872;SDS011;21084;51.098;14.506;2023-07-20T07:35:30;9.23;;;7.22;;
34872;SDS011;21084;51.098;14.506;2023-07-20T07:37:59;9.65;;;7.50;;
34872;SDS011;21084;51.098;14.506;2023-07-20T07:40:47;8.02;;;7.10;;
34872;SDS011;21084;51.098;14.506;2023-07-20T07:43:16;11.40;;;7.70;;
34872;SDS011;21084;51.098;14.506;2023-07-20T07:45:45;12.00;;;7.93;;
34872;SDS011;21084;51.098;14.506;2023-07-20T07:48:13;13.95;;;6.88;;
34872;SDS011;21084;51.098;14.506;2023-07-20T07:50:43;7.85;;;5.90;;
34872;SDS011;21084;51.098;14.506;2023-07-20T07:55:40;8.48;;;6.78;;
34872;SDS011;21084;51.098;14.506;2023-07-20T07:58:09;9.15;;;7.10;;
34872;SDS011;21084;51.098;14.506;2023-07-20T08:00:37;9.15;;;6.70;;
34872;SDS011;21084;51.098;14.506;2023-07-20T08:03:06;9.77;;;7.15;;
34872;SDS011;21084;51.098;14.506;2023-07-20T08:08:05;9.75;;;6.00;;
34872;SDS011;21084;51.098;14.506;2023-07-20T08:10:36;9.60;;;5.72;;
34872;SDS011;21084;51.098;14.506;2023-07-20T08:13:05;5.63;;;5.05;;
34872;SDS011;21084;51.098;14.506;2023-07-20T08:15:34;12.33;;;5.10;;
34872;SDS011;21084;51.098;14.506;2023-07-20T08:18:03;5.57;;;4.65;;
34872;SDS011;21084;51.098;14.506;2023-07-20T08:20:32;7.00;;;4.50;;
34872;SDS011;21084;51.098;14.506;2023-07-20T08:23:02;7.32;;;4.43;;
34872;SDS011;21084;51.098;14.506;2023-07-20T08:25:32;5.20;;;4.55;;
34872;SDS011;21084;51.098;14.506;2023-07-20T08:28:06;8.40;;;4.40;;
34872;SDS011;21084;51.098;14.506;2023-07-20T08:30:40;5.18;;;4.50;;
34872;SDS011;21084;51.098;14.506;2023-07-20T08:33:10;5.15;;;4.40;;
34872;SDS011;21084;51.098;14.506;2023-07-20T08:35:40;6.20;;;4.57;;
34872;SDS011;21084;51.098;14.506;2023-07-20T08:38:09;6.43;;;4.60;;
34872;SDS011;21084;51.098;14.506;2023-07-20T08:40:41;6.88;;;4.68;;
34872;SDS011;21084;51.098;14.506;2023-07-20T08:43:11;8.30;;;6.13;;
34872;SDS011;21084;51.098;14.506;2023-07-20T08:48:08;11.02;;;5.82;;
34872;SDS011;21084;51.098;14.506;2023-07-20T08:50:37;8.85;;;5.90;;
34872;SDS011;21084;51.098;14.506;2023-07-20T08:53:07;12.27;;;6.40;;
34872;SDS011;21084;51.098;14.506;2023-07-20T08:55:37;7.40;;;5.63;;
34872;SDS011;21084;51.098;14.506;2023-07-20T08:58:10;8.05;;;5.20;;
34872;SDS011;21084;51.098;14.506;2023-07-20T09:00:42;6.55;;;4.15;;
34872;SDS011;21084;51.098;14.506;2023-07-20T09:03:13;6.53;;;4.60;;
34872;SDS011;21084;51.098;14.506;2023-07-20T09:05:43;8.32;;;4.70;;
34872;SDS011;21084;51.098;14.506;2023-07-20T09:10:42;7.65;;;4.65;;
34872;SDS011;21084;51.098;14.506;2023-07-20T09:15:45;8.40;;;4.85;;
34872;SDS011;21084;51.098;14.506;2023-07-20T09:18:23;9.77;;;6.03;;
34872;SDS011;21084;51.098;14.506;2023-07-20T09:20:52;12.88;;;7.22;;
34872;SDS011;21084;51.098;14.506;2023-07-20T09:23:25;13.00;;;7.27;;
34872;SDS011;21084;51.098;14.506;2023-07-20T09:26:00;14.65;;;6.90;;
34872;SDS011;21084;51.098;14.506;2023-07-20T09:28:41;10.27;;;6.43;;
34872;SDS011;21084;51.098;14.506;2023-07-20T09:31:17;12.65;;;7.50;;
34872;SDS011;21084;51.098;14.506;2023-07-20T09:33:46;15.50;;;7.72;;
34872;SDS011;21084;51.098;14.506;2023-07-20T09:36:19;16.17;;;8.50;;
34872;SDS011;21084;51.098;14.506;2023-07-20T09:39:08;14.77;;;7.50;;
34872;SDS011;21084;51.098;14.506;2023-07-20T09:41:41;10.63;;;5.90;;
34872;SDS011;21084;51.098;14.506;2023-07-20T09:44:13;7.60;;;4.80;;
34872;SDS011;21084;51.098;14.506;2023-07-20T09:46:46;6.63;;;4.47;;
34872;SDS011;21084;51.098;14.506;2023-07-20T09:49:18;5.35;;;4.15;;
34872;SDS011;21084;51.098;14.506;2023-07-20T09:51:50;9.20;;;3.70;;
34872;SDS011;21084;51.098;14.506;2023-07-20T09:54:21;6.90;;;4.40;;
34872;SDS011;21084;51.098;14.506;2023-07-20T09:56:52;5.45;;;4.15;;
34872;SDS011;21084;51.098;14.506;2023-07-20T09:59:21;7.47;;;4.40;;
34872;SDS011;21084;51.098;14.506;2023-07-20T10:01:50;4.57;;;4.07;;
34872;SDS011;21084;51.098;14.506;2023-07-20T10:04:26;9.30;;;4.68;;
34872;SDS011;21084;51.098;14.506;2023-07-20T10:06:56;7.38;;;4.95;;
34872;SDS011;21084;51.098;14.506;2023-07-20T10:09:31;8.00;;;6.05;;
34872;SDS011;21084;51.098;14.506;2023-07-20T10:12:04;9.15;;;6.57;;
34872;SDS011;21084;51.098;14.506;2023-07-20T10:14:44;7.50;;;6.20;;
34872;SDS011;21084;51.098;14.506;2023-07-20T10:17:21;9.88;;;6.25;;
34872;SDS011;21084;51.098;14.506;2023-07-20T10:19:51;6.57;;;5.95;;
34872;SDS011;21084;51.098;14.506;2023-07-20T10:22:25;6.85;;;5.63;;
34872;SDS011;21084;51.098;14.506;2023-07-20T10:27:27;8.10;;;5.70;;
34872;SDS011;21084;51.098;14.506;2023-07-20T10:29:56;6.68;;;5.00;;
34872;SDS011;21084;51.098;14.506;2023-07-20T10:32:27;8.80;;;5.68;;
34872;SDS011;21084;51.098;14.506;2023-07-20T10:34:57;7.93;;;5.20;;
34872;SDS011;21084;51.098;14.506;2023-07-20T10:40:24;7.88;;;4.32;;
34872;SDS011;21084;51.098;14.506;2023-07-20T10:42:59;7.93;;;5.03;;
34872;SDS011;21084;51.098;14.506;2023-07-20T10:45:33;10.13;;;4.97;;
34872;SDS011;21084;51.098;14.506;2023-07-20T10:48:16;4.93;;;3.60;;
34872;SDS011;21084;51.098;14.506;2023-07-20T10:53:48;7.72;;;3.58;;
34872;SDS011;21084;51.098;14.506;2023-07-20T10:56:19;4.27;;;3.87;;
34872;SDS011;21084;51.098;14.506;2023-07-20T10:58:51;6.22;;;3.47;;
34872;SDS011;21084;51.098;14.506;2023-07-20T11:01:27;7.05;;;4.07;;
34872;SDS011;21084;51.098;14.506;2023-07-20T11:03:59;13.15;;;4.80;;
34872;SDS011;21084;51.098;14.506;2023-07-20T11:06:31;9.80;;;3.63;;
34872;SDS011;21084;51.098;14.506;2023-07-20T11:09:08;6.90;;;3.95;;
34872;SDS011;21084;51.098;14.506;2023-07-20T11:11:42;6.40;;;3.58;;
34872;SDS011;21084;51.098;14.506;2023-07-20T11:14:21;6.82;;;3.50;;
34872;SDS011;21084;51.098;14.506;2023-07-20T11:16:52;8.43;;;3.77;;
34872;SDS011;21084;51.098;14.506;2023-07-20T11:19:22;5.50;;;4.00;;
34872;SDS011;21084;51.098;14.506;2023-07-20T11:21:56;6.25;;;4.35;;
34872;SDS011;21084;51.098;14.506;2023-07-20T11:24:30;5.28;;;4.15;;
34872;SDS011;21084;51.098;14.506;2023-07-20T11:27:00;5.18;;;3.72;;
34872;SDS011;21084;51.098;14.506;2023-07-20T11:29:30;3.75;;;2.80;;
34872;SDS011;21084;51.098;14.506;2023-07-20T11:32:00;2.38;;;2.10;;
34872;SDS011;21084;51.098;14.506;2023-07-20T11:34:31;2.92;;;2.15;;
34872;SDS011;21084;51.098;14.506;2023-07-20T11:37:01;5.43;;;2.42;;
34872;SDS011;21084;51.098;14.506;2023-07-20T11:39:33;2.00;;;1.80;;
34872;SDS011;21084;51.098;14.506;2023-07-20T11:42:03;2.17;;;1.98;;
34872;SDS011;21084;51.098;14.506;2023-07-20T11:44:34;2.75;;;1.38;;
34872;SDS011;21084;51.098;14.506;2023-07-20T11:47:03;2.60;;;1.35;;
34872;SDS011;21084;51.098;14.506;2023-07-20T11:49:36;1.92;;;1.40;;
34872;SDS011;21084;51.098;14.506;2023-07-20T11:52:06;1.65;;;1.10;;
34872;SDS011;21084;51.098;14.506;2023-07-20T11:54:37;5.18;;;1.65;;
34872;SDS011;21084;51.098;14.506;2023-07-20T11:57:15;4.30;;;1.25;;
34872;SDS011;21084;51.098;14.506;2023-07-20T11:59:53;1.58;;;1.15;;
34872;SDS011;21084;51.098;14.506;2023-07-20T12:04:55;1.58;;;1.20;;
34872;SDS011;21084;51.098;14.506;2023-07-20T12:07:25;4.65;;;1.25;;
34872;SDS011;21084;51.098;14.506;2023-07-20T12:10:06;2.42;;;1.00;;
34872;SDS011;21084;51.098;14.506;2023-07-20T12:12:37;2.58;;;0.90;;
34872;SDS011;21084;51.098;14.506;2023-07-20T12:15:24;0.85;;;0.82;;
34872;SDS011;21084;51.098;14.506;2023-07-20T12:17:57;1.77;;;1.05;;
34872;SDS011;21084;51.098;14.506;2023-07-20T12:20:27;0.95;;;0.90;;
34872;SDS011;21084;51.098;14.506;2023-07-20T12:22:59;1.38;;;0.88;;
34872;SDS011;21084;51.098;14.506;2023-07-20T12:25:32;1.52;;;0.90;;
34872;SDS011;21084;51.098;14.506;2023-07-20T12:28:02;2.35;;;1.20;;
34872;SDS011;21084;51.098;14.506;2023-07-20T12:30:34;3.00;;;1.50;;
34872;SDS011;21084;51.098;14.506;2023-07-20T12:33:04;2.20;;;1.30;;
34872;SDS011;21084;51.098;14.506;2023-07-20T12:35:33;2.08;;;1.35;;
34872;SDS011;21084;51.098;14.506;2023-07-20T12:38:02;1.55;;;1.17;;
34872;SDS011;21084;51.098;14.506;2023-07-20T12:40:33;1.95;;;1.80;;
34872;SDS011;21084;51.098;14.506;2023-07-20T12:43:03;2.55;;;1.80;;
34872;SDS011;21084;51.098;14.506;2023-07-20T12:45:34;2.38;;;1.80;;
34872;SDS011;21084;51.098;14.506;2023-07-20T12:48:04;3.42;;;2.03;;
34872;SDS011;21084;51.098;14.506;2023-07-20T12:50:33;3.47;;;2.03;;
34872;SDS011;21084;51.098;14.506;2023-07-20T12:53:02;3.70;;;2.00;;
34872;SDS011;21084;51.098;14.506;2023-07-20T12:55:31;3.33;;;2.33;;
34872;SDS011;21084;51.098;14.506;2023-07-20T12:58:00;2.90;;;2.10;;
34872;SDS011;21084;51.098;14.506;2023-07-20T13:00:28;2.20;;;2.00;;
34872;SDS011;21084;51.098;14.506;2023-07-20T13:02:58;2.20;;;2.00;;
34872;SDS011;21084;51.098;14.506;2023-07-20T13:05:32;3.95;;;2.22;;
34872;SDS011;21084;51.098;14.506;2023-07-20T13:08:04;2.53;;;2.30;;
34872;SDS011;21084;51.098;14.506;2023-07-20T13:10:36;2.92;;;2.28;;
34872;SDS011;21084;51.098;14.506;2023-07-20T13:13:05;3.00;;;2.10;;
34872;SDS011;21084;51.098;14.506;2023-07-20T13:15:40;7.22;;;2.60;;
34872;SDS011;21084;51.098;14.506;2023-07-20T13:18:11;4.85;;;2.67;;
34872;SDS011;21084;51.098;14.506;2023-07-20T13:20:43;3.53;;;2.90;;
34872;SDS011;21084;51.098;14.506;2023-07-20T13:23:12;7.75;;;3.05;;
34872;SDS011;21084;51.098;14.506;2023-07-20T13:25:40;8.95;;;3.00;;
34872;SDS011;21084;51.098;14.506;2023-07-20T13:28:09;3.55;;;2.85;;
34872;SDS011;21084;51.098;14.506;2023-07-20T13:30:37;4.30;;;2.30;;
34872;SDS011;21084;51.098;14.506;2023-07-20T13:33:07;2.30;;;2.13;;
34872;SDS011;21084;51.098;14.506;2023-07-20T13:35:41;4.55;;;2.58;;
34872;SDS011;21084;51.098;14.506;2023-07-20T13:38:12;3.70;;;2.72;;
34872;SDS011;21084;51.098;14.506;2023-07-20T13:40:41;3.47;;;2.95;;
34872;SDS011;21084;51.098;14.506;2023-07-20T13:43:10;3.10;;;2.80;;
34872;SDS011;21084;51.098;14.506;2023-07-20T13:45:39;4.28;;;3.30;;
34872;SDS011;21084;51.098;14.506;2023-07-20T13:48:07;6.55;;;3.70;;
34872;SDS011;21084;51.098;14.506;2023-07-20T13:50:36;6.38;;;3.45;;
34872;SDS011;21084;51.098;14.506;2023-07-20T13:53:09;6.20;;;3.55;;
34872;SDS011;21084;51.098;14.506;2023-07-20T13:55:41;6.15;;;3.50;;
34872;SDS011;21084;51.098;14.506;2023-07-20T13:58:13;6.78;;;3.67;;
34872;SDS011;21084;51.098;14.506;2023-07-20T14:00:41;3.80;;;3.35;;
34872;SDS011;21084;51.098;14.506;2023-07-20T14:03:10;5.45;;;3.03;;
34872;SDS011;21084;51.098;14.506;2023-07-20T14:05:42;5.35;;;3.13;;
34872;SDS011;21084;51.098;14.506;2023-07-20T14:08:15;2.83;;;2.17;;
34872;SDS011;21084;51.098;14.506;2023-07-20T14:10:44;3.30;;;2.00;;
34872;SDS011;21084;51.098;14.506;2023-07-20T14:13:16;4.95;;;1.92;;
34872;SDS011;21084;51.098;14.506;2023-07-20T14:15:44;2.42;;;1.88;;
34872;SDS011;21084;51.098;14.506;2023-07-20T14:18:14;3.90;;;2.40;;
34872;SDS011;21084;51.098;14.506;2023-07-20T14:20:46;2.15;;;1.98;;
34872;SDS011;21084;51.098;14.506;2023-07-20T14:23:16;2.80;;;2.60;;
34872;SDS011;21084;51.098;14.506;2023-07-20T14:25:45;2.70;;;2.30;;
34872;SDS011;21084;51.098;14.506;2023-07-20T14:28:14;2.53;;;1.95;;
34872;SDS011;21084;51.098;14.506;2023-07-20T14:30:43;2.85;;;2.08;;
34872;SDS011;21084;51.098;14.506;2023-07-20T14:33:12;3.42;;;2.13;;
34872;SDS011;21084;51.098;14.506;2023-07-20T14:35:41;2.63;;;2.22;;
34872;SDS011;21084;51.098;14.506;2023-07-20T14:38:10;2.38;;;2.17;;
34872;SDS011;21084;51.098;14.506;2023-07-20T14:40:40;4.00;;;2.33;;
34872;SDS011;21084;51.098;14.506;2023-07-20T14:43:09;2.72;;;2.40;;
34872;SDS011;21084;51.098;14.506;2023-07-20T14:45:38;4.43;;;2.10;;
34872;SDS011;21084;51.098;14.506;2023-07-20T14:48:07;6.47;;;2.20;;
34872;SDS011;21084;51.098;14.506;2023-07-20T14:50:36;2.47;;;2.08;;
34872;SDS011;21084;51.098;14.506;2023-07-20T14:53:04;2.17;;;1.98;;
34872;SDS011;21084;51.098;14.506;2023-07-20T14:55:34;3.60;;;2.00;;
34872;SDS011;21084;51.098;14.506;2023-07-20T14:58:04;4.05;;;2.22;;
34872;SDS011;21084;51.098;14.506;2023-07-20T15:00:33;2.50;;;2.30;;
34872;SDS011;21084;51.098;14.506;2023-07-20T15:03:01;2.38;;;2.03;;
34872;SDS011;21084;51.098;14.506;2023-07-20T15:05:31;3.90;;;2.17;;
34872;SDS011;21084;51.098;14.506;2023-07-20T15:08:02;3.88;;;2.25;;
34872;SDS011;21084;51.098;14.506;2023-07-20T15:10:32;5.30;;;2.22;;
34872;SDS011;21084;51.098;14.506;2023-07-20T15:13:01;4.72;;;2.47;;
34872;SDS011;21084;51.098;14.506;2023-07-20T15:15:32;3.05;;;2.58;;
34872;SDS011;21084;51.098;14.506;2023-07-20T15:18:01;2.58;;;2.17;;
34872;SDS011;21084;51.098;14.506;2023-07-20T15:20:30;6.30;;;2.50;;
34872;SDS011;21084;51.098;14.506;2023-07-20T15:25:29;2.35;;;2.10;;
34872;SDS011;21084;51.098;14.506;2023-07-20T15:27:58;2.67;;;2.15;;
34872;SDS011;21084;51.098;14.506;2023-07-20T15:30:27;3.95;;;2.70;;
34872;SDS011;21084;51.098;14.506;2023-07-20T15:33:00;3.25;;;2.17;;